Time;durP1;ratioP1;P1;durP2;ratioP2;P2;SDS_P1;SDS_P2;PMS_P1;PMS_P2;Temp;Humidity;BMP_temperature;BMP_pressure;BME280_temperature;BME280_humidity;BME280_pressure;Samples;Min_cycle;Max_cycle;Signal;HPM_P1;HPM_P2
2022/07/01 00:01:36;;;;;;;2.12;0.70;;;22.90;99.90;;;;;;4439096;32;20824;-71
2022/07/01 00:04:02;;;;;;;1.55;0.88;;;22.90;99.90;;;;;;4438879;32;20081;-71
2022/07/01 00:06:28;;;;;;;0.65;0.65;;;22.90;99.90;;;;;;4441971;32;20064;-71
2022/07/01 00:08:53;;;;;;;0.88;0.85;;;22.90;99.90;;;;;;4442120;32;20060;-71
2022/07/01 00:11:19;;;;;;;0.57;0.45;;;22.90;99.90;;;;;;4440312;32;20096;-71
2022/07/01 00:13:45;;;;;;;2.90;1.55;;;22.90;99.90;;;;;;4443012;32;20076;-71
2022/07/01 00:16:10;;;;;;;0.40;0.40;;;22.90;99.90;;;;;;4438848;32;20471;-71
2022/07/01 00:18:36;;;;;;;0.88;0.52;;;22.80;99.90;;;;;;4444343;32;20077;-71
2022/07/01 00:21:02;;;;;;;0.65;0.43;;;22.80;99.90;;;;;;4435089;32;20175;-71
2022/07/01 00:23:27;;;;;;;0.52;0.50;;;22.80;99.90;;;;;;4426144;32;21642;-71
2022/07/01 00:25:53;;;;;;;1.30;0.65;;;22.80;99.90;;;;;;4435654;32;20073;-71
2022/07/01 00:28:19;;;;;;;0.40;0.40;;;22.80;99.90;;;;;;4438265;32;20069;-71
2022/07/01 00:30:45;;;;;;;1.35;0.80;;;22.70;99.90;;;;;;4445000;32;20084;-71
2022/07/01 00:33:10;;;;;;;2.62;0.98;;;22.80;99.90;;;;;;4440433;32;20077;-71
2022/07/01 00:35:36;;;;;;;2.37;0.45;;;22.70;99.90;;;;;;4439207;32;20061;-71
2022/07/01 00:38:01;;;;;;;0.55;0.55;;;22.60;99.90;;;;;;4441584;32;20144;-71
2022/07/01 00:40:27;;;;;;;0.75;0.50;;;22.70;99.90;;;;;;4439525;32;20105;-71
2022/07/01 00:42:52;;;;;;;2.00;1.08;;;22.60;99.90;;;;;;4440607;32;20089;-71
2022/07/01 00:45:18;;;;;;;0.70;0.70;;;22.60;99.90;;;;;;4442223;32;20064;-71
2022/07/01 00:47:44;;;;;;;0.62;0.62;;;22.60;99.90;;;;;;4441489;32;20414;-71
2022/07/01 00:50:12;;;;;;;0.90;0.75;;;22.50;99.90;;;;;;4438088;32;20077;-71
2022/07/01 00:52:39;;;;;;;0.50;0.50;;;22.50;99.90;;;;;;4418768;32;20422;-71
2022/07/01 00:55:07;;;;;;;0.50;0.50;;;22.50;99.90;;;;;;4426500;32;20085;-72
2022/07/01 00:57:35;;;;;;;0.40;0.40;;;22.40;99.90;;;;;;4446380;32;20076;-71
2022/07/01 01:00:07;;;;;;;1.50;0.75;;;22.40;99.90;;;;;;4442151;32;20069;-71
2022/07/01 01:02:33;;;;;;;0.50;0.50;;;22.40;99.90;;;;;;4439187;32;20069;-71
2022/07/01 01:04:58;;;;;;;0.98;0.93;;;22.40;99.90;;;;;;4442070;32;20081;-71
2022/07/01 01:07:25;;;;;;;0.50;0.50;;;22.30;99.90;;;;;;4441083;32;20084;-71
2022/07/01 01:09:50;;;;;;;1.10;0.50;;;22.30;99.90;;;;;;4444835;32;20256;-71
2022/07/01 01:12:17;;;;;;;0.43;0.43;;;22.30;99.90;;;;;;4445925;32;20553;-71
2022/07/01 01:14:44;;;;;;;0.77;0.62;;;22.20;99.90;;;;;;4440472;32;20061;-71
2022/07/01 01:17:10;;;;;;;0.98;0.68;;;22.20;99.90;;;;;;4444611;32;20089;-71
2022/07/01 01:19:36;;;;;;;0.60;0.60;;;22.20;99.90;;;;;;4439746;32;20456;-71
2022/07/01 01:22:01;;;;;;;0.75;0.70;;;22.20;99.90;;;;;;4423565;32;20541;-71
2022/07/01 01:24:27;;;;;;;2.92;1.10;;;22.30;99.90;;;;;;4416633;32;20073;-71
2022/07/01 01:26:52;;;;;;;0.68;0.68;;;22.30;99.90;;;;;;4449287;32;20544;-71
2022/07/01 01:29:18;;;;;;;0.73;0.50;;;22.20;99.90;;;;;;4440652;32;20121;-71
2022/07/01 01:31:43;;;;;;;1.33;0.52;;;22.20;99.90;;;;;;4442494;32;102639;-71
2022/07/01 01:34:09;;;;;;;1.00;0.88;;;22.20;99.90;;;;;;4441948;32;20101;-71
2022/07/01 01:36:35;;;;;;;1.75;0.80;;;22.20;99.90;;;;;;4443044;32;20053;-71
2022/07/01 01:39:15;;;;;;;0.43;0.43;;;22.20;99.90;;;;;;4441074;32;20110;-71
2022/07/01 01:41:41;;;;;;;0.68;0.68;;;22.10;99.90;;;;;;4435627;32;20097;-71
2022/07/01 01:44:06;;;;;;;1.20;0.80;;;22.10;99.90;;;;;;4438017;32;20435;-71
2022/07/01 01:46:32;;;;;;;1.30;0.52;;;22.00;99.90;;;;;;4439345;32;20422;-71
2022/07/01 01:48:58;;;;;;;0.45;0.40;;;22.00;99.90;;;;;;4438247;32;20077;-71
2022/07/01 01:51:24;;;;;;;3.55;1.33;;;22.00;99.90;;;;;;4429600;32;20070;-71
2022/07/01 01:53:49;;;;;;;0.95;0.73;;;22.00;99.90;;;;;;4417978;32;20344;-71
2022/07/01 01:56:15;;;;;;;0.62;0.60;;;21.90;99.90;;;;;;4438680;32;20065;-71
2022/07/01 01:58:42;;;;;;;1.25;0.65;;;22.00;99.90;;;;;;4440159;32;20134;-71
2022/07/01 02:01:09;;;;;;;1.15;0.73;;;21.90;99.90;;;;;;4442494;32;20077;-71
2022/07/01 02:03:35;;;;;;;0.60;0.60;;;21.80;99.90;;;;;;4440874;32;20081;-71
2022/07/01 02:06:01;;;;;;;0.80;0.80;;;21.80;99.90;;;;;;4438383;32;20120;-71
2022/07/01 02:08:26;;;;;;;0.85;0.50;;;21.80;99.90;;;;;;4437924;32;20108;-71
2022/07/01 02:10:51;;;;;;;5.53;0.77;;;21.80;99.90;;;;;;4438245;32;20082;-71
2022/07/01 02:13:17;;;;;;;0.77;0.77;;;21.80;99.90;;;;;;4441284;32;20120;-71
2022/07/01 02:15:42;;;;;;;0.73;0.73;;;21.80;99.90;;;;;;4444645;32;20535;-72
2022/07/01 02:18:08;;;;;;;0.73;0.73;;;21.80;99.90;;;;;;4441545;32;20127;-71
2022/07/01 02:20:33;;;;;;;0.68;0.68;;;21.80;99.90;;;;;;4438089;32;20092;-71
2022/07/01 02:22:59;;;;;;;1.02;0.93;;;21.80;99.90;;;;;;4420502;32;20566;-72
2022/07/01 02:25:24;;;;;;;0.62;0.60;;;21.80;99.90;;;;;;4428210;32;20159;-71
2022/07/01 02:27:50;;;;;;;1.27;0.80;;;21.70;99.90;;;;;;4437276;32;20065;-71
2022/07/01 02:30:15;;;;;;;0.77;0.47;;;21.70;99.90;;;;;;4439459;32;20065;-71
2022/07/01 02:32:41;;;;;;;1.40;0.98;;;21.70;99.90;;;;;;4442215;32;20269;-71
2022/07/01 02:35:07;;;;;;;3.03;1.10;;;21.70;99.90;;;;;;4439089;32;20064;-71
2022/07/01 02:37:33;;;;;;;0.60;0.60;;;21.60;99.90;;;;;;4439031;32;20072;-71
2022/07/01 02:39:59;;;;;;;2.10;1.35;;;21.60;99.90;;;;;;4440587;32;20113;-71
2022/07/01 02:42:26;;;;;;;1.87;1.23;;;21.60;99.90;;;;;;4439649;32;20834;-71
2022/07/01 02:44:53;;;;;;;1.05;0.75;;;21.60;99.90;;;;;;4439494;32;20584;-71
2022/07/01 02:47:19;;;;;;;1.75;1.05;;;21.60;99.90;;;;;;4442300;32;20088;-71
2022/07/01 02:49:45;;;;;;;0.70;0.70;;;21.60;99.90;;;;;;4442142;32;20190;-71
2022/07/01 02:52:10;;;;;;;5.18;0.95;;;21.60;99.90;;;;;;4421756;32;20069;-71
2022/07/01 02:54:36;;;;;;;1.23;0.80;;;21.60;99.90;;;;;;4427590;32;20478;-71
2022/07/01 02:57:02;;;;;;;0.65;0.65;;;21.60;99.90;;;;;;4435980;32;20096;-71
2022/07/01 02:59:28;;;;;;;3.00;1.33;;;21.60;99.90;;;;;;4437385;32;20086;-71
2022/07/01 03:01:54;;;;;;;1.27;1.00;;;21.60;99.90;;;;;;4441648;32;20085;-71
2022/07/01 03:04:19;;;;;;;1.20;0.75;;;21.60;99.90;;;;;;4441874;32;20398;-71
2022/07/01 03:06:45;;;;;;;2.42;0.90;;;21.60;99.90;;;;;;4440391;32;20141;-71
2022/07/01 03:09:10;;;;;;;2.83;0.60;;;21.70;99.90;;;;;;4440487;32;20074;-71
2022/07/01 03:11:36;;;;;;;2.58;1.58;;;21.70;99.90;;;;;;4441632;32;20077;-71
2022/07/01 03:14:01;;;;;;;0.60;0.60;;;21.70;99.90;;;;;;4441759;32;20056;-71
2022/07/01 03:16:27;;;;;;;1.20;1.10;;;21.70;99.90;;;;;;4443004;32;20607;-71
2022/07/01 03:18:52;;;;;;;0.70;0.70;;;21.70;99.90;;;;;;4442597;32;20116;-72
2022/07/01 03:21:19;;;;;;;1.02;0.70;;;21.60;99.90;;;;;;4430885;32;20084;-71
2022/07/01 03:23:44;;;;;;;0.93;0.75;;;21.60;99.90;;;;;;4424202;32;20077;-71
2022/07/01 03:26:10;;;;;;;1.35;0.93;;;21.70;99.90;;;;;;4440765;32;20100;-71
2022/07/01 03:28:35;;;;;;;1.77;0.77;;;21.60;99.90;;;;;;4445587;32;20080;-71
2022/07/01 03:31:01;;;;;;;0.93;0.88;;;21.60;99.90;;;;;;4443656;32;20086;-72
2022/07/01 03:33:27;;;;;;;1.45;0.88;;;21.60;99.90;;;;;;4444789;32;20080;-72
2022/07/01 03:35:52;;;;;;;1.33;1.20;;;21.60;99.90;;;;;;4446483;32;20538;-72
2022/07/01 03:38:18;;;;;;;1.27;0.85;;;21.60;99.90;;;;;;4438954;32;20089;-72
2022/07/01 03:40:43;;;;;;;0.88;0.70;;;21.60;99.90;;;;;;4435814;32;20670;-72
2022/07/01 03:43:09;;;;;;;0.65;0.65;;;21.70;99.90;;;;;;4440046;32;20065;-72
2022/07/01 03:45:35;;;;;;;1.55;0.90;;;21.80;99.90;;;;;;4443142;32;20095;-72
2022/07/01 03:48:02;;;;;;;2.17;0.70;;;21.80;99.90;;;;;;4440771;32;20127;-72
2022/07/01 03:50:27;;;;;;;1.42;0.90;;;21.70;99.90;;;;;;4440822;32;20987;-72
2022/07/01 03:54:53;;;;;;;4.35;1.20;;;21.70;99.90;;;;;;4418434;32;20065;-72
2022/07/01 03:55:39;;;;;;;0.52;0.52;;;21.70;99.90;;;;;;4427365;32;20154;-72
2022/07/01 03:58:04;;;;;;;3.80;1.23;;;21.70;99.90;;;;;;4442282;32;20073;-72
2022/07/01 04:00:33;;;;;;;2.22;1.20;;;21.80;99.90;;;;;;4441244;32;20576;-72
2022/07/01 04:02:59;;;;;;;0.98;0.88;;;21.80;99.90;;;;;;4443542;32;20588;-72
2022/07/01 04:05:25;;;;;;;1.25;0.68;;;21.90;99.90;;;;;;4437522;32;20076;-72
2022/07/01 04:07:50;;;;;;;1.05;0.85;;;21.90;99.90;;;;;;4443611;32;20139;-72
2022/07/01 04:10:16;;;;;;;1.80;1.02;;;21.90;99.90;;;;;;4442559;32;20089;-72
2022/07/01 04:12:41;;;;;;;2.67;1.20;;;21.90;99.90;;;;;;4439194;32;20085;-72
2022/07/01 04:15:07;;;;;;;1.75;1.10;;;22.00;99.90;;;;;;4439550;32;20085;-72
2022/07/01 04:17:33;;;;;;;0.80;0.80;;;22.10;99.90;;;;;;4444935;32;20545;-72
2022/07/01 04:19:58;;;;;;;6.87;1.85;;;22.10;99.90;;;;;;4441044;32;20540;-72
2022/07/01 04:22:40;;;;;;;2.10;1.05;;;22.10;99.90;;;;;;4402370;32;20077;-72
2022/07/01 04:25:07;;;;;;;1.98;1.35;;;22.10;99.90;;;;;;4386411;32;20519;-72
2022/07/01 04:27:33;;;;;;;4.35;2.03;;;22.20;99.90;;;;;;4405658;32;20361;-72
2022/07/01 04:29:58;;;;;;;1.00;0.90;;;22.30;99.90;;;;;;4402483;32;20109;-72
2022/07/01 04:32:24;;;;;;;0.82;0.82;;;22.40;99.90;;;;;;4402203;32;20427;-72
2022/07/01 04:34:50;;;;;;;1.23;0.90;;;22.40;99.90;;;;;;4418151;32;20104;-72
2022/07/01 04:37:15;;;;;;;0.70;0.52;;;22.40;99.90;;;;;;4434274;32;20143;-72
2022/07/01 04:39:41;;;;;;;6.25;2.22;;;22.50;99.90;;;;;;4443001;32;20483;-72
2022/07/01 04:42:06;;;;;;;5.47;0.70;;;22.50;99.90;;;;;;4445867;32;20072;-72
2022/07/01 04:44:34;;;;;;;1.23;0.98;;;22.60;99.90;;;;;;4446962;32;20097;-72
2022/07/01 04:47:00;;;;;;;1.65;0.77;;;22.70;99.90;;;;;;4444239;32;20551;-72
2022/07/01 04:49:26;;;;;;;2.97;0.50;;;22.70;99.90;;;;;;4446710;32;20080;-72
2022/07/01 04:51:52;;;;;;;4.35;1.40;;;22.80;99.90;;;;;;4421504;32;20567;-72
2022/07/01 04:54:18;;;;;;;1.52;0.88;;;22.80;99.90;;;;;;4384281;32;20108;-72
2022/07/01 04:56:44;;;;;;;0.40;0.40;;;22.90;99.90;;;;;;4421822;32;20492;-72
2022/07/01 04:59:09;;;;;;;0.60;0.60;;;23.00;99.90;;;;;;4441478;32;20080;-72
2022/07/01 05:01:35;;;;;;;2.35;1.02;;;23.00;99.90;;;;;;4426195;32;20068;-72
2022/07/01 05:04:01;;;;;;;2.60;0.75;;;23.00;99.90;;;;;;4408129;32;20364;-72
2022/07/01 05:06:27;;;;;;;1.52;0.88;;;23.10;99.90;;;;;;4401080;32;20648;-72
2022/07/01 05:08:52;;;;;;;0.40;0.40;;;23.10;99.90;;;;;;4395874;32;20412;-72
2022/07/01 05:11:18;;;;;;;2.95;1.95;;;23.20;99.90;;;;;;4394820;32;20073;-72
2022/07/01 05:13:43;;;;;;;0.85;0.70;;;23.30;99.90;;;;;;4387913;32;20085;-71
2022/07/01 05:16:09;;;;;;;0.90;0.68;;;23.40;99.90;;;;;;4404640;32;20061;-71
2022/07/01 05:22:21;;;;;;;0.73;0.70;;;23.50;99.90;;;;;;4348413;32;21286;-72
2022/07/01 05:24:07;;;;;;;2.00;0.95;;;23.60;99.90;;;;;;4309839;32;20113;-71
2022/07/01 05:26:33;;;;;;;7.35;0.90;;;23.70;99.90;;;;;;4340967;32;21123;-73
2022/07/01 05:28:59;;;;;;;3.90;1.55;;;23.80;99.90;;;;;;4340828;32;20286;-71
2022/07/01 05:31:25;;;;;;;1.98;1.27;;;23.80;99.90;;;;;;4334152;32;20093;-70
2022/07/01 05:33:51;;;;;;;1.92;0.55;;;23.70;99.90;;;;;;4354814;32;20163;-70
2022/07/01 05:36:17;;;;;;;2.30;0.90;;;23.80;99.90;;;;;;4361197;32;20989;-71
2022/07/01 05:38:43;;;;;;;1.65;0.77;;;23.80;99.90;;;;;;4357746;32;20207;-70
2022/07/01 05:41:09;;;;;;;0.85;0.70;;;23.80;99.90;;;;;;4368783;32;20362;-71
2022/07/01 05:43:34;;;;;;;1.12;0.80;;;23.70;99.90;;;;;;4387318;32;20373;-71
2022/07/01 05:46:00;;;;;;;0.95;0.80;;;23.60;99.90;;;;;;4399698;32;20186;-72
2022/07/01 05:48:26;;;;;;;3.47;1.35;;;23.60;99.90;;;;;;4402605;32;20249;-71
2022/07/01 05:50:52;;;;;;;3.35;1.10;;;23.50;99.90;;;;;;4395786;32;20239;-71
2022/07/01 05:53:18;;;;;;;0.55;0.55;;;23.40;99.90;;;;;;4402946;32;20101;-72
2022/07/01 05:55:43;;;;;;;1.10;1.05;;;23.40;99.90;;;;;;4416911;32;20057;-72
2022/07/01 05:58:10;;;;;;;2.95;1.45;;;23.50;99.90;;;;;;4420443;32;20069;-71
2022/07/01 06:00:37;;;;;;;3.90;1.35;;;23.50;99.90;;;;;;4412350;32;20687;-71
2022/07/01 06:03:03;;;;;;;2.25;0.80;;;23.60;99.90;;;;;;4399472;32;20096;-71
2022/07/01 06:05:30;;;;;;;0.77;0.68;;;23.60;99.90;;;;;;4400207;32;20546;-72
2022/07/01 06:07:55;;;;;;;1.73;1.00;;;23.50;99.90;;;;;;4408302;32;20590;-72
2022/07/01 06:10:21;;;;;;;4.60;1.10;;;23.60;99.90;;;;;;4427883;32;20065;-71
2022/07/01 06:12:46;;;;;;;2.22;1.58;;;23.70;99.90;;;;;;4424540;32;20526;-71
2022/07/01 06:15:12;;;;;;;5.07;1.08;;;23.80;99.90;;;;;;4431757;32;20142;-71
2022/07/01 06:17:40;;;;;;;2.47;1.25;;;23.80;99.90;;;;;;4423319;32;20230;-71
2022/07/01 06:20:08;;;;;;;2.30;1.45;;;23.90;99.90;;;;;;4402847;32;20171;-71
2022/07/01 06:22:34;;;;;;;1.35;1.25;;;24.00;99.90;;;;;;4399401;32;20120;-71
2022/07/01 06:25:00;;;;;;;1.12;0.93;;;24.00;99.90;;;;;;4423476;32;20086;-71
2022/07/01 06:27:25;;;;;;;1.98;0.50;;;23.80;99.90;;;;;;4422691;32;20128;-71
2022/07/01 06:29:51;;;;;;;1.35;0.82;;;23.80;99.90;;;;;;4406657;32;20306;-71
2022/07/01 06:32:17;;;;;;;6.15;1.95;;;23.80;99.90;;;;;;4398574;32;20153;-72
2022/07/01 06:34:42;;;;;;;0.65;0.65;;;23.80;99.90;;;;;;4393337;32;20288;-72
2022/07/01 06:37:08;;;;;;;0.62;0.55;;;23.80;99.90;;;;;;4396846;32;20060;-72
2022/07/01 06:39:33;;;;;;;4.47;2.00;;;23.90;99.90;;;;;;4420452;32;20207;-72
2022/07/01 06:41:59;;;;;;;1.15;0.93;;;24.00;99.90;;;;;;4422651;32;20131;-72
2022/07/01 06:44:25;;;;;;;1.20;0.90;;;24.10;99.90;;;;;;4426137;32;20131;-72
2022/07/01 06:46:50;;;;;;;13.05;1.50;;;24.20;99.90;;;;;;4425983;32;20088;-72
2022/07/01 06:49:16;;;;;;;0.82;0.82;;;24.20;99.90;;;;;;4403223;32;20563;-72
2022/07/01 06:51:41;;;;;;;5.03;1.12;;;24.20;99.90;;;;;;4401569;32;20279;-72
2022/07/01 06:54:07;;;;;;;1.60;0.75;;;24.30;99.90;;;;;;4413723;32;20576;-72
2022/07/01 06:56:32;;;;;;;2.45;1.00;;;24.40;99.90;;;;;;4419986;32;20494;-72
2022/07/01 06:58:58;;;;;;;0.70;0.70;;;24.50;99.90;;;;;;4416762;32;20245;-72
2022/07/01 07:01:24;;;;;;;4.25;1.65;;;24.70;99.90;;;;;;4402252;32;20114;-71
2022/07/01 07:03:49;;;;;;;0.60;0.60;;;24.90;99.90;;;;;;4380987;32;20118;-71
2022/07/01 07:06:15;;;;;;;0.60;0.60;;;24.90;99.90;;;;;;4394094;32;21814;-70
2022/07/01 07:08:41;;;;;;;3.85;1.27;;;24.80;99.90;;;;;;4419846;32;20069;-71
2022/07/01 07:11:08;;;;;;;0.73;0.50;;;24.80;99.90;;;;;;4426201;32;20325;-71
2022/07/01 07:13:34;;;;;;;0.37;0.37;;;24.80;99.90;;;;;;4418143;32;20057;-71
2022/07/01 07:16:00;;;;;;;4.75;1.35;;;24.70;99.90;;;;;;4420289;32;20089;-71
2022/07/01 07:18:25;;;;;;;1.48;0.88;;;24.70;99.90;;;;;;4412896;32;20485;-71
2022/07/01 07:20:51;;;;;;;1.73;0.73;;;24.60;99.90;;;;;;4404084;32;20062;-71
2022/07/01 07:23:16;;;;;;;1.08;0.95;;;24.70;99.90;;;;;;4401036;32;20805;-71
2022/07/01 07:25:42;;;;;;;1.55;1.08;;;24.70;99.90;;;;;;4413439;32;20073;-71
2022/07/01 07:28:07;;;;;;;0.73;0.62;;;24.80;99.90;;;;;;4408832;32;20192;-71
2022/07/01 07:30:33;;;;;;;0.50;0.50;;;24.80;99.90;;;;;;4395540;32;20194;-71
2022/07/01 07:32:58;;;;;;;0.60;0.55;;;24.90;99.90;;;;;;4374358;32;20219;-72
2022/07/01 07:35:24;;;;;;;2.03;0.62;;;25.10;99.90;;;;;;4388110;32;20257;-71
2022/07/01 07:37:50;;;;;;;0.43;0.37;;;25.10;99.90;;;;;;4402168;32;20082;-71
2022/07/01 07:40:18;;;;;;;0.30;0.30;;;25.10;99.90;;;;;;4409530;32;20377;-71
2022/07/01 07:42:46;;;;;;;0.57;0.57;;;25.10;99.90;;;;;;4413323;32;20061;-71
2022/07/01 07:45:12;;;;;;;0.40;0.40;;;25.20;99.90;;;;;;4419005;32;20135;-72
2022/07/01 07:47:38;;;;;;;2.08;1.02;;;25.50;99.90;;;;;;4414680;32;20894;-71
2022/07/01 07:50:04;;;;;;;2.83;0.93;;;25.70;99.90;;;;;;4403407;32;20335;-71
2022/07/01 07:52:30;;;;;;;0.55;0.43;;;26.00;99.90;;;;;;4404831;32;20088;-71
2022/07/01 07:54:56;;;;;;;0.40;0.40;;;26.20;99.90;;;;;;4415910;32;20337;-71
2022/07/01 07:57:21;;;;;;;5.10;1.60;;;26.20;99.90;;;;;;4424114;32;20069;-71
2022/07/01 07:59:47;;;;;;;0.37;0.32;;;26.00;99.90;;;;;;4410027;32;20279;-71
2022/07/01 08:02:13;;;;;;;0.60;0.60;;;26.00;99.90;;;;;;4396174;32;20412;-71
2022/07/01 08:04:38;;;;;;;0.40;0.40;;;26.10;99.90;;;;;;4379880;32;20410;-72
2022/07/01 08:07:04;;;;;;;1.27;0.47;;;26.20;99.90;;;;;;4396584;32;20093;-71
2022/07/01 08:09:31;;;;;;;1.90;0.52;;;26.40;99.90;;;;;;4420892;32;20840;-71
2022/07/01 08:11:57;;;;;;;0.20;0.20;;;26.60;99.90;;;;;;4413556;32;20074;-71
2022/07/01 08:14:23;;;;;;;0.65;0.57;;;26.60;99.90;;;;;;4415074;32;20061;-71
2022/07/01 08:16:48;;;;;;;0.60;0.60;;;26.50;99.90;;;;;;4421505;32;20089;-71
2022/07/01 08:19:14;;;;;;;3.42;0.40;;;26.30;99.90;;;;;;4407662;32;20089;-71
2022/07/01 08:21:40;;;;;;;1.00;0.55;;;26.40;99.90;;;;;;4401857;32;20288;-71
2022/07/01 08:24:05;;;;;;;0.30;0.30;;;26.50;99.90;;;;;;4412128;32;20726;-71
2022/07/01 08:26:31;;;;;;;0.77;0.47;;;26.60;99.90;;;;;;4420050;32;20077;-71
2022/07/01 08:28:56;;;;;;;3.25;1.48;;;26.40;99.90;;;;;;4414351;32;20990;-71
2022/07/01 08:31:22;;;;;;;2.12;1.02;;;26.30;99.90;;;;;;4403090;32;20318;-71
2022/07/01 08:33:47;;;;;;;0.40;0.40;;;26.30;99.90;;;;;;4378764;32;20080;-71
2022/07/01 08:36:13;;;;;;;1.27;0.40;;;26.40;99.90;;;;;;4392385;32;20539;-71
2022/07/01 08:38:39;;;;;;;0.22;0.22;;;26.40;99.90;;;;;;4414308;32;20098;-71
2022/07/01 08:41:05;;;;;;;0.37;0.37;;;26.30;99.90;;;;;;4419755;32;20612;-71
2022/07/01 08:43:31;;;;;;;4.90;1.55;;;26.50;99.90;;;;;;4415249;32;20495;-71
2022/07/01 08:46:01;;;;;;;0.62;0.57;;;26.70;99.90;;;;;;4420211;32;20635;-71
2022/07/01 08:48:27;;;;;;;0.15;0.15;;;27.00;99.90;;;;;;4418069;32;20101;-71
2022/07/01 08:50:52;;;;;;;0.25;0.25;;;27.20;99.90;;;;;;4408567;32;20493;-71
2022/07/01 08:53:18;;;;;;;5.25;0.93;;;27.20;99.90;;;;;;4409054;32;20588;-71
2022/07/01 08:56:46;;;;;;;0.65;0.40;;;27.10;99.90;;;;;;4426757;32;20433;-71
2022/07/01 08:58:29;;;;;;;0.30;0.30;;;27.10;99.90;;;;;;4418196;32;20099;-71
2022/07/01 09:01:15;;;;;;;0.22;0.17;;;26.90;99.90;;;;;;4408042;32;20085;-71
2022/07/01 09:03:41;;;;;;;0.30;0.30;;;26.60;99.90;;;;;;4389842;32;20766;-71
2022/07/01 09:06:25;;;;;;;0.65;0.52;;;26.60;99.90;;;;;;4398188;32;20872;-71
2022/07/01 09:08:51;;;;;;;0.10;0.10;;;26.00;99.90;;;;;;4408945;32;20493;-71
2022/07/01 09:11:19;;;;;;;0.65;0.40;;;25.50;99.90;;;;;;4420447;32;20147;-71
2022/07/01 09:14:06;;;;;;;0.30;0.30;;;25.20;99.90;;;;;;4416968;32;20564;-71
2022/07/01 09:16:48;;;;;;;1.30;0.57;;;24.90;99.90;;;;;;4409810;32;20565;-71
2022/07/01 09:19:15;;;;;;;0.20;0.20;;;24.30;99.90;;;;;;4409726;32;21386;-71
2022/07/01 09:21:41;;;;;;;0.22;0.22;;;24.20;99.90;;;;;;4406984;32;20084;-71
2022/07/01 09:24:26;;;;;;;0.30;0.30;;;23.80;99.90;;;;;;4411283;32;20054;-71
2022/07/01 09:26:58;;;;;;;1.35;0.28;;;23.10;99.90;;;;;;4417352;32;20097;-71
2022/07/01 09:29:27;;;;;;;0.10;0.10;;;22.80;99.90;;;;;;4410486;32;20077;-71
2022/07/01 09:31:52;;;;;;;0.55;0.43;;;22.30;99.90;;;;;;4398631;32;20359;-71
2022/07/01 09:34:18;;;;;;;0.30;0.30;;;22.00;99.90;;;;;;4379388;32;20770;-71
2022/07/01 09:36:52;;;;;;;0.10;0.10;;;22.00;99.90;;;;;;4393849;32;20251;-71
2022/07/01 09:39:18;;;;;;;0.20;0.20;;;21.90;99.90;;;;;;4409731;32;20631;-71
2022/07/01 09:41:43;;;;;;;2.87;0.73;;;21.70;99.90;;;;;;4405360;32;20213;-71
2022/07/01 09:44:09;;;;;;;0.20;0.20;;;21.50;99.90;;;;;;4405256;32;20186;-71
2022/07/01 09:46:35;;;;;;;0.20;0.20;;;21.20;99.90;;;;;;4414249;32;20073;-71
2022/07/01 09:49:01;;;;;;;0.30;0.30;;;21.00;99.90;;;;;;4409080;32;20353;-72
2022/07/01 09:51:28;;;;;;;0.20;0.20;;;20.90;99.90;;;;;;4409131;32;20354;-71
2022/07/01 09:53:56;;;;;;;0.20;0.20;;;20.90;99.90;;;;;;4410800;32;20281;-71
2022/07/01 09:56:23;;;;;;;0.40;0.40;;;20.70;99.90;;;;;;4420049;32;20291;-71
2022/07/01 09:58:48;;;;;;;0.30;0.30;;;20.60;99.90;;;;;;4422480;32;20157;-71
2022/07/01 10:01:15;;;;;;;0.25;0.25;;;20.60;99.90;;;;;;4403896;32;20068;-71
2022/07/01 10:03:41;;;;;;;0.20;0.20;;;20.50;99.90;;;;;;4387765;32;20228;-71
2022/07/01 10:06:10;;;;;;;0.40;0.40;;;20.50;99.90;;;;;;4391756;32;20093;-71
2022/07/01 10:08:50;;;;;;;0.25;0.25;;;20.30;99.90;;;;;;4416228;32;20388;-72
2022/07/01 10:11:37;;;;;;;0.30;0.30;;;20.30;99.90;;;;;;4418434;32;20684;-71
2022/07/01 10:14:04;;;;;;;0.30;0.30;;;20.50;99.90;;;;;;4416649;32;20077;-71
2022/07/01 10:16:32;;;;;;;0.30;0.30;;;20.30;99.90;;;;;;4421458;32;20482;-70
2022/07/01 10:18:58;;;;;;;0.30;0.30;;;20.30;99.90;;;;;;4410636;32;20211;-70
2022/07/01 10:21:27;;;;;;;0.25;0.25;;;20.10;99.90;;;;;;4394576;32;20308;-70
2022/07/01 10:24:12;;;;;;;0.30;0.30;;;20.00;99.90;;;;;;4401129;32;20159;-71
2022/07/01 10:26:37;;;;;;;0.20;0.20;;;20.00;99.90;;;;;;4414181;32;20232;-70
2022/07/01 10:29:03;;;;;;;0.30;0.30;;;19.70;99.90;;;;;;4412845;32;20085;-71
2022/07/01 10:31:37;;;;;;;0.20;0.20;;;19.70;99.90;;;;;;4392358;32;20603;-71
2022/07/01 10:34:03;;;;;;;0.30;0.30;;;19.90;99.90;;;;;;4377104;32;20571;-71
2022/07/01 10:36:31;;;;;;;0.30;0.30;;;20.00;99.90;;;;;;4382698;32;20447;-71
2022/07/01 10:41:31;;;;;;;0.28;0.28;;;19.90;99.90;;;;;;4406344;32;20053;-70
2022/07/01 10:44:02;;;;;;;0.20;0.20;;;20.00;99.90;;;;;;4408498;32;20057;-71
2022/07/01 10:46:50;;;;;;;0.30;0.30;;;20.10;99.90;;;;;;4409734;32;20088;-72
2022/07/01 10:49:18;;;;;;;0.20;0.20;;;20.10;99.90;;;;;;4386630;32;20068;-72
2022/07/01 10:51:59;;;;;;;0.10;0.10;;;20.00;99.90;;;;;;4391325;32;20065;-72
2022/07/01 10:54:45;;;;;;;;;;;19.60;99.90;;;;;;4411583;32;21684;-72
2022/07/01 10:57:20;;;;;;;0.20;0.20;;;19.60;99.90;;;;;;4417738;32;19972;-72
2022/07/01 10:59:48;;;;;;;0.20;0.20;;;19.60;99.90;;;;;;4400744;32;20104;-72
2022/07/01 11:02:18;;;;;;;0.20;0.20;;;19.60;99.90;;;;;;4386773;32;20187;-72
2022/07/01 11:04:44;;;;;;;0.30;0.30;;;19.60;99.90;;;;;;4380191;32;20583;-72
2022/07/01 11:07:10;;;;;;;0.30;0.30;;;19.40;99.90;;;;;;4387897;32;20104;-72
2022/07/01 11:09:35;;;;;;;7.32;0.30;;;19.40;99.90;;;;;;4421587;32;20591;-72
2022/07/01 11:12:04;;;;;;;2.20;0.90;;;19.30;99.90;;;;;;4412398;32;20241;-72
2022/07/01 11:14:34;;;;;;;0.20;0.20;;;19.10;99.90;;;;;;4412113;32;20072;-72
2022/07/01 11:17:00;;;;;;;0.47;0.47;;;18.90;99.90;;;;;;4419002;32;20153;-72
2022/07/01 11:19:26;;;;;;;1.17;0.30;;;18.90;99.90;;;;;;4398529;32;20443;-70
2022/07/01 11:21:52;;;;;;;0.52;0.52;;;18.80;99.90;;;;;;4399745;32;20266;-71
2022/07/01 11:24:18;;;;;;;0.25;0.25;;;18.70;99.90;;;;;;4413378;32;20154;-71
2022/07/01 11:26:44;;;;;;;0.20;0.20;;;18.60;99.90;;;;;;4428125;32;20081;-71
2022/07/01 11:29:11;;;;;;;2.03;0.40;;;18.60;99.90;;;;;;4415166;32;20094;-70
2022/07/01 11:31:36;;;;;;;0.30;0.30;;;18.50;99.90;;;;;;4397623;32;20408;-70
2022/07/01 11:34:03;;;;;;;0.30;0.30;;;18.30;99.90;;;;;;4382602;32;20487;-70
2022/07/01 11:39:23;;;;;;;0.30;0.30;;;18.40;99.90;;;;;;4410435;32;20591;-71
2022/07/01 11:41:58;;;;;;;0.20;0.20;;;18.30;99.90;;;;;;4417044;32;20086;-70
2022/07/01 11:44:33;;;;;;;0.30;0.30;;;18.50;99.90;;;;;;4414559;32;20069;-70
2022/07/01 11:47:00;;;;;;;0.30;0.30;;;18.70;99.90;;;;;;4418211;32;20179;-71
2022/07/01 11:49:26;;;;;;;1.17;0.40;;;18.80;99.90;;;;;;4394765;32;20277;-71
2022/07/01 11:51:57;;;;;;;0.30;0.30;;;18.90;99.90;;;;;;4396018;32;20438;-70
2022/07/01 11:54:23;;;;;;;0.30;0.30;;;18.90;99.90;;;;;;4415581;32;20212;-72
2022/07/01 11:56:48;;;;;;;0.30;0.30;;;18.90;99.90;;;;;;4425716;32;20069;-73
2022/07/01 11:59:14;;;;;;;0.55;0.55;;;19.00;99.90;;;;;;4414279;32;20215;-72
2022/07/01 12:01:39;;;;;;;0.20;0.20;;;19.10;99.90;;;;;;4393400;32;20958;-72
2022/07/01 12:04:08;;;;;;;0.28;0.28;;;19.00;99.90;;;;;;4380030;32;20807;-72
2022/07/01 12:06:35;;;;;;;0.22;0.22;;;19.00;99.90;;;;;;4392697;32;20820;-72
2022/07/01 12:09:01;;;;;;;0.20;0.20;;;19.10;99.90;;;;;;4415364;32;20074;-72
2022/07/01 12:11:28;;;;;;;0.30;0.30;;;19.30;99.90;;;;;;4421410;32;20089;-72
2022/07/01 12:13:56;;;;;;;0.30;0.30;;;19.50;99.90;;;;;;4420433;32;20839;-72
2022/07/01 12:16:23;;;;;;;0.30;0.30;;;19.70;99.90;;;;;;4424074;32;20068;-72
2022/07/01 12:18:52;;;;;;;0.77;0.35;;;19.40;99.90;;;;;;4406602;32;20081;-71
2022/07/01 12:21:18;;;;;;;0.40;0.40;;;19.40;99.90;;;;;;4399626;32;20081;-71
2022/07/01 12:24:02;;;;;;;0.30;0.30;;;19.50;99.90;;;;;;4415221;32;20076;-73
2022/07/01 12:26:27;;;;;;;0.30;0.30;;;19.50;99.90;;;;;;4428726;32;20056;-73
2022/07/01 12:28:54;;;;;;;0.30;0.30;;;19.40;99.90;;;;;;4421091;32;20173;-74
2022/07/01 12:31:20;;;;;;;0.45;0.40;;;19.40;99.90;;;;;;4402076;32;20250;-74
2022/07/01 12:33:51;;;;;;;0.75;0.40;;;19.60;99.90;;;;;;4382354;32;20286;-71
2022/07/01 12:36:16;;;;;;;0.25;0.25;;;19.60;99.90;;;;;;4387286;32;20607;-71
2022/07/01 12:38:43;;;;;;;1.37;0.40;;;19.40;99.90;;;;;;4419591;32;20077;-71
2022/07/01 12:41:36;;;;;;;1.02;0.55;;;19.30;99.90;;;;;;4416628;32;20164;-72
2022/07/01 12:44:23;;;;;;;0.25;0.25;;;19.50;99.90;;;;;;4410385;32;20073;-72
2022/07/01 12:46:48;;;;;;;0.75;0.65;;;19.40;99.90;;;;;;4409962;32;20073;-72
2022/07/01 12:49:24;;;;;;;0.30;0.30;;;19.50;99.90;;;;;;4406805;32;20114;-72
2022/07/01 12:51:51;;;;;;;0.40;0.40;;;19.20;99.90;;;;;;4396224;32;20956;-72
2022/07/01 12:54:34;;;;;;;12.57;0.80;;;19.10;99.90;;;;;;4421967;32;20430;-72
2022/07/01 12:57:00;;;;;;;0.30;0.30;;;19.20;99.90;;;;;;4430195;32;20084;-72